Time;durP1;ratioP1;P1;durP2;ratioP2;P2;SDS_P1;SDS_P2;PMS_P1;PMS_P2;Temp;Humidity;BMP_temperature;BMP_pressure;BME280_temperature;BME280_humidity;BME280_pressure;Samples;Min_cycle;Max_cycle;Signal;HPM_P1;HPM_P2
2021/11/05 00:02:08;;;;;;;100.20;33.38;;;7.40;99.90;;;;;;5058576;28;20028;-52
2021/11/05 00:04:33;;;;;;;94.97;33.20;;;7.40;99.90;;;;;;5058635;28;20025;-51
2021/11/05 00:07:00;;;;;;;84.70;29.58;;;7.40;99.90;;;;;;5061169;28;20102;-51
2021/11/05 00:09:26;;;;;;;147.35;39.35;;;7.40;99.90;;;;;;5057744;28;20028;-48
2021/11/05 00:11:52;;;;;;;107.25;32.03;;;7.40;99.90;;;;;;5056441;28;20029;-51
2021/11/05 00:14:17;;;;;;;120.53;34.85;;;7.40;99.90;;;;;;5055822;28;20107;-51
2021/11/05 00:16:43;;;;;;;96.80;32.92;;;7.40;99.90;;;;;;5055251;28;20103;-51
2021/11/05 00:19:09;;;;;;;109.93;35.85;;;7.40;99.90;;;;;;5055879;28;20430;-50
2021/11/05 00:21:35;;;;;;;110.82;33.63;;;7.40;99.90;;;;;;5057185;28;20354;-51
2021/11/05 00:24:01;;;;;;;89.97;31.48;;;7.30;99.90;;;;;;5055295;28;20020;-51
2021/11/05 00:26:28;;;;;;;107.53;34.45;;;7.30;99.90;;;;;;5056631;28;20122;-51
2021/11/05 00:28:53;;;;;;;97.82;33.78;;;7.40;99.90;;;;;;5056501;28;20214;-49
2021/11/05 00:31:19;;;;;;;120.80;34.20;;;7.40;99.90;;;;;;5055696;28;20122;-49
2021/11/05 00:33:44;;;;;;;69.25;28.20;;;7.30;99.90;;;;;;5058397;28;20111;-51
2021/11/05 00:36:14;;;;;;;78.15;28.92;;;7.30;99.90;;;;;;5065613;28;20028;-51
2021/11/05 00:38:41;;;;;;;96.82;29.80;;;7.30;99.90;;;;;;5055254;28;20047;-48
2021/11/05 00:41:07;;;;;;;82.65;29.42;;;7.40;99.90;;;;;;5054024;28;20040;-49
2021/11/05 00:43:33;;;;;;;85.80;30.63;;;7.30;99.90;;;;;;5056753;28;20051;-49
2021/11/05 00:45:58;;;;;;;98.15;32.63;;;7.30;99.90;;;;;;5056029;28;20735;-50
2021/11/05 00:48:24;;;;;;;78.05;30.33;;;7.30;99.90;;;;;;5053533;28;20021;-51
2021/11/05 00:50:50;;;;;;;128.32;37.55;;;7.30;99.90;;;;;;5056644;28;20035;-50
2021/11/05 00:53:15;;;;;;;118.85;35.95;;;7.30;99.90;;;;;;5057556;28;20032;-50
2021/11/05 00:55:41;;;;;;;105.05;36.40;;;7.30;99.90;;;;;;5076192;28;20012;-51
2021/11/05 00:58:07;;;;;;;109.50;36.35;;;7.30;99.90;;;;;;5085836;28;20028;-51
2021/11/05 01:00:33;;;;;;;113.10;35.47;;;7.30;99.90;;;;;;5086809;28;20047;-49
2021/11/05 01:02:59;;;;;;;130.02;38.72;;;7.40;99.90;;;;;;5081355;28;20711;-51
2021/11/05 01:05:25;;;;;;;137.48;40.90;;;7.40;99.90;;;;;;5070418;28;20020;-50
2021/11/05 01:07:51;;;;;;;119.90;40.75;;;7.40;99.90;;;;;;5086103;28;20042;-51
2021/11/05 01:10:17;;;;;;;140.38;42.20;;;7.40;99.90;;;;;;5085916;28;20028;-51
2021/11/05 01:12:42;;;;;;;141.77;39.28;;;7.30;99.90;;;;;;5086782;28;20032;-51
2021/11/05 01:15:09;;;;;;;150.85;43.47;;;7.30;99.90;;;;;;5087370;28;20024;-51
2021/11/05 01:17:35;;;;;;;124.97;40.78;;;7.30;99.90;;;;;;5086527;28;20354;-51
2021/11/05 01:20:02;;;;;;;160.77;45.08;;;7.40;99.90;;;;;;5087169;28;20024;-51
2021/11/05 01:22:27;;;;;;;135.50;41.50;;;7.40;99.90;;;;;;5085376;28;20028;-51
2021/11/05 01:24:52;;;;;;;123.00;39.03;;;7.40;99.90;;;;;;5087238;28;20240;-51
2021/11/05 01:27:18;;;;;;;137.55;41.00;;;7.40;99.90;;;;;;5086147;28;20036;-50
2021/11/05 01:29:45;;;;;;;160.00;45.53;;;7.40;99.90;;;;;;5087072;28;20400;-51
2021/11/05 01:32:11;;;;;;;113.97;39.25;;;7.40;99.90;;;;;;5087082;28;20069;-51
2021/11/05 01:34:37;;;;;;;130.50;41.15;;;7.40;99.90;;;;;;5073126;28;20024;-51
2021/11/05 01:37:03;;;;;;;144.63;45.72;;;7.40;99.90;;;;;;5077598;28;20024;-51
2021/11/05 01:39:28;;;;;;;138.75;44.65;;;7.40;99.90;;;;;;5087220;28;20028;-51
2021/11/05 01:41:56;;;;;;;157.02;43.72;;;7.40;99.90;;;;;;5087417;28;20016;-50
2021/11/05 01:44:23;;;;;;;177.02;46.92;;;7.50;99.90;;;;;;5087262;28;20028;-51
2021/11/05 01:46:48;;;;;;;196.60;51.80;;;7.40;99.90;;;;;;5087694;28;20028;-50
2021/11/05 01:49:14;;;;;;;104.07;39.38;;;7.50;99.90;;;;;;5086206;28;20031;-50
2021/11/05 01:51:40;;;;;;;138.40;44.72;;;7.40;99.90;;;;;;5086373;28;20482;-51
2021/11/05 01:54:11;;;;;;;210.05;53.50;;;7.50;99.90;;;;;;5087220;28;20048;-50
2021/11/05 01:56:41;;;;;;;120.30;43.35;;;7.50;99.90;;;;;;5085769;28;20391;-50
2021/11/05 01:59:07;;;;;;;199.20;53.88;;;7.40;99.90;;;;;;5086087;28;20046;-48
2021/11/05 02:01:34;;;;;;;182.55;51.15;;;7.40;99.90;;;;;;5086987;28;20020;-49
2021/11/05 02:04:00;;;;;;;152.13;46.70;;;7.40;99.90;;;;;;5073107;28;20044;-49
2021/11/05 02:06:28;;;;;;;217.38;54.40;;;7.40;99.90;;;;;;5080263;28;20012;-51
2021/11/05 02:08:55;;;;;;;208.05;53.80;;;7.50;99.90;;;;;;5087924;28;20031;-51
2021/11/05 02:11:21;;;;;;;213.32;55.08;;;7.50;99.90;;;;;;5089586;28;20034;-50
2021/11/05 02:13:47;;;;;;;222.13;55.83;;;7.50;99.90;;;;;;5089733;28;20031;-49
2021/11/05 02:16:14;;;;;;;187.07;54.58;;;7.40;99.90;;;;;;5089549;28;20028;-49
2021/11/05 02:18:40;;;;;;;204.10;53.25;;;7.50;99.90;;;;;;5088544;28;20063;-50
2021/11/05 02:21:18;;;;;;;184.82;52.65;;;7.50;99.90;;;;;;5090293;28;20020;-48
2021/11/05 02:23:44;;;;;;;220.50;56.17;;;7.50;99.90;;;;;;5090276;28;20020;-49
2021/11/05 02:26:10;;;;;;;166.05;52.15;;;7.50;99.90;;;;;;5090345;28;20669;-49
2021/11/05 02:28:39;;;;;;;207.80;56.05;;;7.50;99.90;;;;;;5087934;28;20273;-50
2021/11/05 02:31:07;;;;;;;250.05;59.58;;;7.50;99.90;;;;;;5089567;28;20028;-50
2021/11/05 02:33:33;;;;;;;181.65;54.42;;;7.50;99.90;;;;;;5077295;28;20589;-50
2021/11/05 02:35:58;;;;;;;193.65;53.63;;;7.50;99.90;;;;;;5081400;28;20027;-49
2021/11/05 02:38:24;;;;;;;243.38;60.67;;;7.50;99.90;;;;;;5088863;28;20029;-50
2021/11/05 02:40:51;;;;;;;213.88;60.58;;;7.50;99.90;;;;;;5089575;28;20032;-51
2021/11/05 02:43:16;;;;;;;197.80;56.20;;;7.50;99.90;;;;;;5089676;28;20025;-51
2021/11/05 02:45:47;;;;;;;262.42;66.15;;;7.50;99.90;;;;;;5089817;28;20544;-49
2021/11/05 02:48:12;;;;;;;235.77;62.08;;;7.50;99.90;;;;;;5087588;28;20050;-51
2021/11/05 02:50:38;;;;;;;184.65;56.40;;;7.50;99.90;;;;;;5087828;28;20024;-49
2021/11/05 02:53:03;;;;;;;219.93;60.53;;;7.50;99.90;;;;;;5088077;28;20489;-50
2021/11/05 02:55:29;;;;;;;152.07;50.88;;;7.50;99.90;;;;;;5089533;28;20067;-48
2021/11/05 02:57:55;;;;;;;214.95;60.72;;;7.50;99.90;;;;;;5088430;28;20107;-49
2021/11/05 03:00:20;;;;;;;180.98;56.40;;;7.50;99.90;;;;;;5089112;28;20031;-50
2021/11/05 03:02:46;;;;;;;189.55;60.15;;;7.50;99.90;;;;;;5089710;28;20103;-50
2021/11/05 03:05:12;;;;;;;238.00;61.90;;;7.50;99.90;;;;;;5071952;28;20050;-51
2021/11/05 03:07:38;;;;;;;181.35;55.22;;;7.50;99.90;;;;;;5085993;28;20069;-49
2021/11/05 03:10:04;;;;;;;179.05;56.53;;;7.50;99.90;;;;;;5088008;28;20020;-51
2021/11/05 03:12:30;;;;;;;244.07;67.03;;;7.50;99.90;;;;;;5088908;28;20366;-51
2021/11/05 03:14:55;;;;;;;211.48;58.92;;;7.50;99.90;;;;;;5089440;28;20026;-50
2021/11/05 03:17:23;;;;;;;164.95;54.33;;;7.50;99.90;;;;;;5087648;28;20035;-50
2021/11/05 03:19:49;;;;;;;181.15;56.08;;;7.50;99.90;;;;;;5089534;28;20024;-50
2021/11/05 03:22:14;;;;;;;189.45;55.75;;;7.50;99.90;;;;;;5088269;28;20265;-50
2021/11/05 03:24:40;;;;;;;234.02;64.07;;;7.50;99.90;;;;;;5088845;28;20036;-49
2021/11/05 03:27:05;;;;;;;228.82;65.90;;;7.50;99.90;;;;;;5087008;28;20342;-50
2021/11/05 03:29:31;;;;;;;256.30;64.32;;;7.50;99.90;;;;;;5087655;28;20063;-51
2021/11/05 03:31:57;;;;;;;242.73;65.65;;;7.50;99.90;;;;;;5088966;28;20353;-49
2021/11/05 03:34:23;;;;;;;239.27;64.93;;;7.50;99.90;;;;;;5080192;28;20035;-51
2021/11/05 03:36:49;;;;;;;276.90;62.95;;;7.50;99.90;;;;;;5079828;28;20039;-50
2021/11/05 03:39:14;;;;;;;182.77;55.00;;;7.50;99.90;;;;;;5088092;28;20028;-51
2021/11/05 03:41:40;;;;;;;253.93;64.38;;;7.50;99.90;;;;;;5088517;28;20059;-52
2021/11/05 03:44:05;;;;;;;232.30;61.38;;;7.50;99.90;;;;;;5088539;28;20088;-52
2021/11/05 03:46:32;;;;;;;228.30;61.97;;;7.50;99.90;;;;;;5088763;28;20020;-52
2021/11/05 03:48:58;;;;;;;232.05;63.35;;;7.50;99.90;;;;;;5087516;28;20016;-52
2021/11/05 03:51:24;;;;;;;261.88;67.47;;;7.50;99.90;;;;;;5088352;28;20096;-52
2021/11/05 03:53:49;;;;;;;203.10;58.45;;;7.50;99.90;;;;;;5088191;28;20020;-51
2021/11/05 03:56:15;;;;;;;283.67;69.53;;;7.50;99.90;;;;;;5088130;28;20027;-51
2021/11/05 03:58:40;;;;;;;235.25;65.30;;;7.50;99.90;;;;;;5088184;28;20106;-51
2021/11/05 04:01:06;;;;;;;230.40;67.40;;;7.50;99.90;;;;;;5086993;28;20067;-51
2021/11/05 04:03:32;;;;;;;190.27;56.22;;;7.60;99.90;;;;;;5078666;28;20382;-52
2021/11/05 04:06:00;;;;;;;279.42;64.93;;;7.50;99.90;;;;;;5078977;28;20148;-52
2021/11/05 04:08:26;;;;;;;257.10;65.88;;;7.50;99.90;;;;;;5087576;28;20024;-52
2021/11/05 04:10:52;;;;;;;296.83;70.30;;;7.50;99.90;;;;;;5088178;28;20508;-51
2021/11/05 04:13:18;;;;;;;256.20;67.03;;;7.50;99.90;;;;;;5088266;28;20101;-52
2021/11/05 04:15:44;;;;;;;275.55;68.32;;;7.50;99.90;;;;;;5088043;28;20477;-51
2021/11/05 04:18:09;;;;;;;263.95;68.10;;;7.50;99.90;;;;;;5085595;28;20438;-52
2021/11/05 04:20:35;;;;;;;218.40;58.45;;;7.50;99.90;;;;;;5087624;28;20028;-48
2021/11/05 04:23:05;;;;;;;262.83;63.97;;;7.50;99.90;;;;;;5087629;28;20028;-48
2021/11/05 04:25:32;;;;;;;265.88;64.47;;;7.50;99.90;;;;;;5086545;28;20078;-49
2021/11/05 04:27:58;;;;;;;282.77;68.45;;;7.50;99.90;;;;;;5086527;28;20031;-50
2021/11/05 04:30:25;;;;;;;240.27;62.58;;;7.50;99.90;;;;;;5086456;28;20561;-48
2021/11/05 04:32:50;;;;;;;294.35;68.47;;;7.50;99.90;;;;;;5088004;28;20032;-49
2021/11/05 04:35:16;;;;;;;272.15;67.82;;;7.50;99.90;;;;;;5073862;28;20085;-48
2021/11/05 04:37:41;;;;;;;218.82;61.30;;;7.50;99.90;;;;;;5084781;28;20358;-50
2021/11/05 04:40:07;;;;;;;243.85;64.10;;;7.50;99.90;;;;;;5087532;28;20032;-51
2021/11/05 04:42:33;;;;;;;272.23;71.57;;;7.50;99.90;;;;;;5087641;28;20016;-48
2021/11/05 04:44:58;;;;;;;273.23;65.85;;;7.50;99.90;;;;;;5087729;28;20492;-49
2021/11/05 04:47:24;;;;;;;267.77;65.85;;;7.50;99.90;;;;;;5087090;28;20115;-49
2021/11/05 04:49:49;;;;;;;243.15;62.63;;;7.60;99.90;;;;;;5087294;28;20036;-48
2021/11/05 04:52:15;;;;;;;289.70;70.68;;;7.60;99.90;;;;;;5077077;28;20035;-49
2021/11/05 04:54:40;;;;;;;293.67;71.07;;;7.60;99.90;;;;;;5056276;28;20419;-50
2021/11/05 04:57:08;;;;;;;176.73;55.72;;;7.60;99.90;;;;;;5057241;28;20034;-48
2021/11/05 04:59:34;;;;;;;280.13;69.40;;;7.60;99.90;;;;;;5057484;28;20016;-49
2021/11/05 05:01:59;;;;;;;265.48;68.03;;;7.50;99.90;;;;;;5057109;28;20040;-48
2021/11/05 05:04:25;;;;;;;275.63;65.82;;;7.50;99.90;;;;;;5057310;28;20536;-48
2021/11/05 05:06:50;;;;;;;227.93;61.80;;;7.50;99.90;;;;;;5064332;28;20532;-50
2021/11/05 05:09:16;;;;;;;270.45;70.28;;;7.50;99.90;;;;;;5056342;28;20025;-50
2021/11/05 05:11:45;;;;;;;286.42;70.72;;;7.50;99.90;;;;;;5056557;28;20017;-50
2021/11/05 05:14:12;;;;;;;293.52;73.15;;;7.50;99.90;;;;;;5053947;28;20374;-48
2021/11/05 05:16:37;;;;;;;259.15;67.35;;;7.50;99.90;;;;;;5056922;28;20544;-51
2021/11/05 05:19:03;;;;;;;244.05;61.10;;;7.50;99.90;;;;;;5056624;28;20037;-51
2021/11/05 05:21:28;;;;;;;247.40;68.13;;;7.50;99.90;;;;;;5056073;28;20394;-51
2021/11/05 05:23:54;;;;;;;282.50;68.30;;;7.50;99.90;;;;;;5057441;28;20029;-48
2021/11/05 05:26:19;;;;;;;304.67;75.93;;;7.50;99.90;;;;;;5056527;28;20096;-51
2021/11/05 05:28:45;;;;;;;317.77;74.63;;;7.50;99.90;;;;;;5054795;28;20037;-50
2021/11/05 05:31:10;;;;;;;298.42;79.03;;;7.40;99.90;;;;;;5063396;28;20044;-51
2021/11/05 05:33:37;;;;;;;317.92;72.68;;;7.50;99.90;;;;;;5056571;28;20025;-50
2021/11/05 05:36:07;;;;;;;306.98;73.55;;;7.50;99.90;;;;;;5070082;28;20039;-51
2021/11/05 05:38:33;;;;;;;274.13;74.15;;;7.50;99.90;;;;;;5067701;28;20040;-50
2021/11/05 05:40:59;;;;;;;274.85;71.47;;;7.50;99.90;;;;;;5064482;28;20037;-51
2021/11/05 05:43:25;;;;;;;303.25;76.00;;;7.50;99.90;;;;;;5072821;28;20036;-48
2021/11/05 05:45:51;;;;;;;343.85;79.25;;;7.50;99.90;;;;;;5072222;28;20051;-49
2021/11/05 05:48:16;;;;;;;278.48;72.40;;;7.50;99.90;;;;;;5069814;28;20467;-51
2021/11/05 05:50:42;;;;;;;332.48;83.40;;;7.50;99.90;;;;;;5072841;28;20039;-50
2021/11/05 05:53:07;;;;;;;276.55;75.45;;;7.50;99.90;;;;;;5072431;28;20029;-51
2021/11/05 05:55:34;;;;;;;376.15;88.32;;;7.40;99.90;;;;;;5072398;28;20028;-52
2021/11/05 05:58:00;;;;;;;312.73;80.13;;;7.50;99.90;;;;;;5073847;28;20016;-51
2021/11/05 06:00:28;;;;;;;340.25;84.22;;;7.40;99.90;;;;;;5063090;28;20015;-51
2021/11/05 06:02:54;;;;;;;267.95;74.47;;;7.40;99.90;;;;;;5062976;28;20032;-51
2021/11/05 06:05:20;;;;;;;395.27;88.07;;;7.50;99.90;;;;;;5069149;28;20467;-51
2021/11/05 06:07:45;;;;;;;363.13;87.22;;;7.40;99.90;;;;;;5068615;28;20024;-49
2021/11/05 06:10:11;;;;;;;349.88;80.43;;;7.40;99.90;;;;;;5070394;28;20496;-50
2021/11/05 06:12:36;;;;;;;395.98;83.03;;;7.40;99.90;;;;;;5061595;28;20032;-49
2021/11/05 06:15:03;;;;;;;290.02;80.53;;;7.40;99.90;;;;;;5060715;28;20139;-50
2021/11/05 06:17:29;;;;;;;278.38;73.13;;;7.40;99.90;;;;;;5060679;28;20033;-51
2021/11/05 06:19:54;;;;;;;382.00;87.00;;;7.40;99.90;;;;;;5059950;28;20082;-52
2021/11/05 06:22:20;;;;;;;287.13;81.25;;;7.40;99.90;;;;;;5062077;28;20020;-52
2021/11/05 06:24:46;;;;;;;320.67;75.07;;;7.40;99.90;;;;;;5061267;28;20059;-52
2021/11/05 06:27:12;;;;;;;338.23;80.72;;;7.40;99.90;;;;;;5059452;28;20340;-51
2021/11/05 06:29:38;;;;;;;341.40;80.10;;;7.30;99.90;;;;;;5059441;28;20035;-51
2021/11/05 06:32:04;;;;;;;375.35;83.65;;;7.30;99.90;;;;;;5059574;28;20063;-52
2021/11/05 06:34:29;;;;;;;323.02;75.65;;;7.30;99.90;;;;;;5062068;28;20041;-49
2021/11/05 06:36:55;;;;;;;331.27;76.60;;;7.30;99.90;;;;;;5066922;28;20363;-53
2021/11/05 06:39:20;;;;;;;282.60;67.68;;;7.40;99.90;;;;;;5059089;28;20017;-49
2021/11/05 06:41:46;;;;;;;263.58;66.30;;;7.40;99.90;;;;;;5058600;28;20039;-51
2021/11/05 06:44:12;;;;;;;275.40;65.75;;;7.40;99.90;;;;;;5060267;28;20544;-51
2021/11/05 06:46:37;;;;;;;321.85;75.70;;;7.40;99.90;;;;;;5065750;28;20028;-48
2021/11/05 06:49:03;;;;;;;258.30;65.57;;;7.40;99.90;;;;;;5065213;28;20025;-52
2021/11/05 06:51:28;;;;;;;294.95;70.22;;;7.50;99.90;;;;;;5052622;28;20079;-52
2021/11/05 06:53:54;;;;;;;195.52;61.78;;;7.40;99.90;;;;;;5058170;28;20039;-49
2021/11/05 06:56:19;;;;;;;242.07;63.13;;;7.40;99.90;;;;;;5063509;28;20023;-49
2021/11/05 06:58:47;;;;;;;262.58;66.22;;;7.40;99.90;;;;;;5057633;28;20051;-51
2021/11/05 07:01:13;;;;;;;269.63;65.15;;;7.40;99.90;;;;;;5056824;28;20025;-52
2021/11/05 07:03:38;;;;;;;241.98;56.80;;;7.40;99.90;;;;;;5058201;28;20029;-52
2021/11/05 07:06:04;;;;;;;199.77;56.95;;;7.40;99.90;;;;;;5067480;28;20529;-51
2021/11/05 07:08:31;;;;;;;222.32;59.58;;;7.40;99.90;;;;;;5055995;28;20024;-51
2021/11/05 07:10:57;;;;;;;243.50;61.72;;;7.40;99.90;;;;;;5057824;28;20024;-50
2021/11/05 07:13:23;;;;;;;234.70;60.60;;;7.40;99.90;;;;;;5058190;28;20376;-52
2021/11/05 07:15:48;;;;;;;210.57;57.67;;;7.40;99.90;;;;;;5056487;28;20025;-51
2021/11/05 07:18:15;;;;;;;239.75;60.17;;;7.40;99.90;;;;;;5057530;28;20021;-52
2021/11/05 07:20:41;;;;;;;229.95;59.17;;;7.40;99.90;;;;;;5058802;28;20035;-52
2021/11/05 07:23:07;;;;;;;264.90;60.75;;;7.40;99.90;;;;;;5059985;28;20025;-52
2021/11/05 07:25:33;;;;;;;191.95;53.05;;;7.30;99.90;;;;;;5057626;28;20028;-52
2021/11/05 07:27:59;;;;;;;218.15;55.13;;;7.40;99.90;;;;;;5058112;28;20040;-51
2021/11/05 07:30:25;;;;;;;247.82;59.00;;;7.40;99.90;;;;;;5053205;28;20021;-50
2021/11/05 07:32:51;;;;;;;209.85;54.17;;;7.40;99.90;;;;;;5049680;28;20033;-51
2021/11/05 07:35:19;;;;;;;254.05;61.08;;;7.40;99.90;;;;;;5072448;28;20386;-52
2021/11/05 07:37:45;;;;;;;192.48;52.25;;;7.40;99.90;;;;;;5087619;28;20024;-52
2021/11/05 07:40:11;;;;;;;205.27;53.40;;;7.40;99.90;;;;;;5089917;28;20024;-52
2021/11/05 07:42:38;;;;;;;198.35;54.75;;;7.50;99.90;;;;;;5089898;28;20032;-51
2021/11/05 07:45:06;;;;;;;204.68;52.20;;;7.40;99.90;;;;;;5089698;28;20043;-52
2021/11/05 07:47:31;;;;;;;185.63;49.97;;;7.40;99.90;;;;;;5063042;28;20078;-51
2021/11/05 07:49:57;;;;;;;174.40;50.60;;;7.40;99.90;;;;;;5049643;28;20364;-51
2021/11/05 07:52:23;;;;;;;217.23;53.63;;;7.50;99.90;;;;;;5049604;28;20033;-51
2021/11/05 07:54:51;;;;;;;206.35;53.55;;;7.50;99.90;;;;;;5049502;28;20113;-51
2021/11/05 07:57:17;;;;;;;183.73;51.67;;;7.50;99.90;;;;;;5047255;28;20116;-51
2021/11/05 07:59:42;;;;;;;172.88;49.42;;;7.50;99.90;;;;;;5047734;28;20120;-51
2021/11/05 08:02:08;;;;;;;197.35;51.67;;;7.60;99.90;;;;;;5049269;28;20037;-51
2021/11/05 08:04:34;;;;;;;216.23;53.08;;;7.60;99.90;;;;;;5063871;28;20020;-51
2021/11/05 08:07:00;;;;;;;173.32;49.25;;;7.60;99.90;;;;;;5081016;28;20389;-51
2021/11/05 08:09:25;;;;;;;147.95;46.25;;;7.60;99.90;;;;;;5089594;28;20115;-51
2021/11/05 08:11:51;;;;;;;165.70;46.60;;;7.70;99.90;;;;;;5089793;28;20509;-50
2021/11/05 08:14:17;;;;;;;179.65;49.70;;;7.70;99.90;;;;;;5089391;28;20085;-50
2021/11/05 08:16:43;;;;;;;166.23;48.85;;;7.80;99.90;;;;;;5089050;28;20024;-49
2021/11/05 08:19:08;;;;;;;160.38;46.30;;;7.80;99.90;;;;;;5088312;28;20032;-51
2021/11/05 08:21:34;;;;;;;158.40;47.03;;;7.80;99.90;;;;;;5089327;28;20028;-51
2021/11/05 08:24:00;;;;;;;189.38;49.33;;;7.80;99.90;;;;;;5089190;28;20122;-50
2021/11/05 08:26:27;;;;;;;170.50;48.20;;;7.80;99.90;;;;;;5089166;28;20020;-50
2021/11/05 08:28:53;;;;;;;155.05;48.40;;;7.90;99.90;;;;;;5087224;28;20032;-51
2021/11/05 08:31:19;;;;;;;144.43;44.20;;;7.90;99.90;;;;;;5087690;28;20191;-51
2021/11/05 08:33:45;;;;;;;144.32;43.63;;;7.90;99.90;;;;;;5081703;28;20031;-50
2021/11/05 08:36:13;;;;;;;129.52;42.58;;;7.90;99.90;;;;;;5081087;28;20055;-50
2021/11/05 08:38:40;;;;;;;137.02;43.40;;;7.80;99.90;;;;;;5088210;28;20072;-48
2021/11/05 08:41:07;;;;;;;128.45;42.00;;;7.80;99.90;;;;;;5089057;28;20509;-50
2021/11/05 08:43:34;;;;;;;118.43;41.58;;;7.80;99.90;;;;;;5089469;28;20024;-50
2021/11/05 08:46:04;;;;;;;132.02;41.90;;;7.80;99.90;;;;;;5087772;28;20070;-50
2021/11/05 08:48:30;;;;;;;102.17;37.13;;;7.80;99.90;;;;;;5086501;28;20531;-48
2021/11/05 08:51:05;;;;;;;108.20;39.13;;;7.90;99.90;;;;;;5088444;28;20031;-50
2021/11/05 08:53:30;;;;;;;101.88;37.33;;;7.90;99.90;;;;;;5077884;28;20317;-49
2021/11/05 08:55:56;;;;;;;100.18;36.42;;;7.90;99.90;;;;;;5079646;28;20036;-49
2021/11/05 08:58:21;;;;;;;87.63;35.17;;;8.00;99.90;;;;;;5086712;28;20123;-47
2021/11/05 09:00:47;;;;;;;91.32;34.05;;;7.90;99.90;;;;;;5082924;28;20094;-49
2021/11/05 09:03:13;;;;;;;87.80;33.45;;;8.00;99.90;;;;;;5080128;28;20020;-50
2021/11/05 09:05:39;;;;;;;82.50;35.60;;;8.00;99.90;;;;;;5088241;28;20442;-50
2021/11/05 09:08:05;;;;;;;78.57;33.30;;;8.10;99.90;;;;;;5087827;28;20024;-50
2021/11/05 09:10:31;;;;;;;79.80;32.92;;;8.10;99.90;;;;;;5088389;28;20031;-49
2021/11/05 09:12:57;;;;;;;85.10;33.75;;;8.20;99.90;;;;;;5088359;28;20032;-49
2021/11/05 09:15:27;;;;;;;81.00;33.63;;;8.20;99.90;;;;;;5087805;28;20546;-48
2021/11/05 09:17:54;;;;;;;77.03;33.78;;;8.30;99.90;;;;;;5087669;28;20020;-50
2021/11/05 09:20:21;;;;;;;72.18;31.50;;;8.40;99.90;;;;;;5088347;28;20053;-50
2021/11/05 09:22:47;;;;;;;78.53;32.90;;;8.50;99.90;;;;;;5088594;28;20029;-50
2021/11/05 09:25:13;;;;;;;70.93;32.28;;;8.60;99.90;;;;;;5088402;28;20035;-50
2021/11/05 09:27:39;;;;;;;63.65;31.13;;;8.80;99.90;;;;;;5087518;28;20036;-49
2021/11/05 09:30:07;;;;;;;62.53;30.20;;;8.80;99.90;;;;;;5088323;28;20036;-48
2021/11/05 09:32:33;;;;;;;57.90;27.00;;;8.90;99.90;;;;;;5075187;28;20170;-51
2021/11/05 09:34:58;;;;;;;56.28;26.40;;;8.90;99.90;;;;;;5088557;28;20490;-49
2021/11/05 09:37:24;;;;;;;49.42;26.55;;;8.80;99.90;;;;;;5086325;28;20509;-48
2021/11/05 09:39:49;;;;;;;53.03;26.73;;;8.90;99.90;;;;;;5088049;28;20040;-49
2021/11/05 09:42:16;;;;;;;59.88;26.35;;;8.90;99.90;;;;;;5088214;28;20413;-51
2021/11/05 09:44:43;;;;;;;51.38;26.02;;;9.10;99.90;;;;;;5088486;28;20023;-50
2021/11/05 09:47:08;;;;;;;49.65;25.50;;;9.10;99.90;;;;;;5087712;28;20039;-50
2021/11/05 09:49:35;;;;;;;52.50;25.35;;;9.10;99.90;;;;;;5088405;28;20030;-51
2021/11/05 09:52:03;;;;;;;44.53;23.80;;;9.20;99.90;;;;;;5088456;28;20024;-49
2021/11/05 09:54:33;;;;;;;45.63;24.05;;;9.20;99.90;;;;;;5088774;28;20103;-50
2021/11/05 09:57:02;;;;;;;52.67;24.73;;;9.20;99.90;;;;;;5088416;28;20060;-51
2021/11/05 09:59:27;;;;;;;42.88;23.00;;;9.20;99.90;;;;;;5086319;28;20028;-48
2021/11/05 10:01:53;;;;;;;38.40;22.17;;;9.30;99.90;;;;;;5078269;28;20079;-50
2021/11/05 10:04:19;;;;;;;39.50;20.10;;;9.20;99.90;;;;;;5086499;28;20377;-49
2021/11/05 10:07:00;;;;;;;35.08;20.27;;;9.20;99.90;;;;;;5076815;28;20031;-50
2021/11/05 10:09:33;;;;;;;39.92;20.83;;;9.20;99.90;;;;;;5088212;28;20034;-50
2021/11/05 10:12:16;;;;;;;35.83;19.75;;;9.20;99.90;;;;;;5087973;28;20032;-50
2021/11/05 10:14:44;;;;;;;36.63;19.65;;;9.30;99.90;;;;;;5087967;28;20020;-49
2021/11/05 10:17:14;;;;;;;37.85;18.90;;;9.20;99.90;;;;;;5087206;28;20031;-50
2021/11/05 10:19:46;;;;;;;39.78;19.10;;;9.20;99.90;;;;;;5087362;28;20024;-49
2021/11/05 10:22:31;;;;;;;35.10;19.70;;;9.20;99.90;;;;;;5087876;28;20035;-48
2021/11/05 10:25:36;;;;;;;36.20;18.52;;;9.20;99.90;;;;;;5088065;28;20502;-49
2021/11/05 10:28:05;;;;;;;33.40;18.38;;;9.40;99.90;;;;;;5068039;28;20028;-48
2021/11/05 10:30:33;;;;;;;33.30;19.45;;;9.50;99.90;;;;;;5087948;28;20469;-50
2021/11/05 10:33:01;;;;;;;32.92;18.65;;;9.70;99.90;;;;;;5087632;28;20028;-50
2021/11/05 10:35:28;;;;;;;29.38;17.23;;;10.00;99.90;;;;;;5082839;28;20115;-47
2021/11/05 10:38:04;;;;;;;30.85;16.05;;;10.10;99.90;;;;;;5090840;28;20032;-50
2021/11/05 10:40:42;;;;;;;28.95;17.73;;;10.10;99.90;;;;;;5091227;28;20035;-49
2021/11/05 10:43:10;;;;;;;29.58;16.80;;;10.10;99.90;;;;;;5091518;28;20015;-50
2021/11/05 10:45:37;;;;;;;30.35;17.55;;;10.10;99.90;;;;;;5091335;28;20035;-50
2021/11/05 10:48:06;;;;;;;26.70;16.52;;;10.10;99.90;;;;;;5090511;28;20385;-50
2021/11/05 10:50:38;;;;;;;28.40;16.90;;;10.10;99.90;;;;;;5090721;28;20032;-50
2021/11/05 10:53:16;;;;;;;30.77;16.15;;;10.10;99.90;;;;;;5090889;28;20105;-50
2021/11/05 10:55:47;;;;;;;29.83;16.42;;;9.90;99.90;;;;;;5090947;28;20028;-49
2021/11/05 10:58:28;;;;;;;23.50;14.48;;;10.00;99.90;;;;;;5089783;28;20035;-50
2021/11/05 11:01:00;;;;;;;28.90;15.57;;;9.90;99.90;;;;;;5090536;28;20016;-48
2021/11/05 11:03:31;;;;;;;29.77;15.70;;;9.90;99.90;;;;;;5088109;28;20473;-48
2021/11/05 11:06:07;;;;;;;26.50;15.50;;;9.90;99.90;;;;;;5056782;28;20477;-50
2021/11/05 11:08:35;;;;;;;31.60;14.85;;;9.90;99.90;;;;;;5081742;28;20076;-47
2021/11/05 11:11:41;;;;;;;24.73;14.20;;;9.90;99.90;;;;;;5090886;28;20028;-48
2021/11/05 11:14:15;;;;;;;32.20;16.25;;;9.80;99.90;;;;;;5088736;28;20446;-50
2021/11/05 11:16:44;;;;;;;28.52;15.93;;;9.70;99.90;;;;;;5090552;28;20050;-49
2021/11/05 11:19:15;;;;;;;28.58;14.85;;;9.70;99.90;;;;;;5088553;28;20039;-50
2021/11/05 11:21:47;;;;;;;25.52;15.60;;;9.70;99.90;;;;;;5089103;28;20068;-49
2021/11/05 11:24:16;;;;;;;28.90;15.90;;;9.60;99.90;;;;;;5090412;28;20035;-49
2021/11/05 11:26:43;;;;;;;31.58;16.10;;;9.70;99.90;;;;;;5090113;28;20036;-49
2021/11/05 11:29:10;;;;;;;30.73;15.82;;;9.80;99.90;;;;;;5088379;28;20028;-50
2021/11/05 11:31:38;;;;;;;29.77;17.10;;;9.80;99.90;;;;;;5088992;28;20051;-50
2021/11/05 11:34:06;;;;;;;24.88;15.15;;;9.90;99.90;;;;;;5090169;28;20362;-50
2021/11/05 11:36:35;;;;;;;32.70;17.38;;;9.90;99.90;;;;;;5073990;28;20020;-49
2021/11/05 11:39:04;;;;;;;31.73;16.75;;;10.00;99.90;;;;;;5072822;28;20024;-49
2021/11/05 11:41:33;;;;;;;33.00;18.60;;;10.00;99.90;;;;;;5088676;28;20051;-49
2021/11/05 11:44:00;;;;;;;32.13;17.03;;;10.10;99.90;;;;;;5089924;28;20034;-47
2021/11/05 11:46:27;;;;;;;28.73;16.90;;;10.20;99.90;;;;;;5090257;28;20103;-49
2021/11/05 11:48:55;;;;;;;28.45;16.30;;;10.20;99.90;;;;;;5089214;28;20043;-50
2021/11/05 11:51:24;;;;;;;30.77;16.45;;;10.30;99.90;;;;;;5072235;28;20040;-50
2021/11/05 11:54:02;;;;;;;31.38;16.90;;;10.40;99.90;;;;;;5088657;28;20031;-50
2021/11/05 11:56:31;;;;;;;27.38;15.57;;;10.40;99.90;;;;;;5090047;28;20038;-48
2021/11/05 11:59:05;;;;;;;28.15;15.48;;;10.50;99.90;;;;;;5088980;28;20431;-48
2021/11/05 12:01:37;;;;;;;24.38;15.05;;;10.60;99.90;;;;;;5089624;28;20016;-50
2021/11/05 12:04:06;;;;;;;23.38;13.93;;;10.60;99.90;;;;;;5089637;28;20069;-48
2021/11/05 12:06:50;;;;;;;22.83;14.43;;;10.60;99.90;;;;;;5073393;28;20016;-48
2021/11/05 12:09:26;;;;;;;23.40;13.48;;;10.50;99.90;;;;;;5077492;28;20026;-50
2021/11/05 12:12:21;;;;;;;24.92;13.73;;;10.40;99.90;;;;;;5089387;28;20682;-47
2021/11/05 12:14:58;;;;;;;21.58;12.32;;;10.50;99.90;;;;;;5089434;28;20378;-50
2021/11/05 12:17:51;;;;;;;21.90;13.07;;;10.60;99.90;;;;;;5088643;28;20020;-47
2021/11/05 12:20:29;;;;;;;21.63;13.10;;;10.60;99.90;;;;;;5087677;28;20024;-48
2021/11/05 12:23:15;;;;;;;22.33;11.57;;;10.60;99.90;;;;;;5088058;28;20134;-47
2021/11/05 12:25:45;;;;;;;22.30;11.45;;;10.50;99.90;;;;;;5089427;28;20023;-48
2021/11/05 12:28:21;;;;;;;22.48;10.77;;;10.40;99.90;;;;;;5088744;28;20024;-49
2021/11/05 12:30:49;;;;;;;18.33;10.95;;;10.40;99.90;;;;;;5089115;28;20402;-49